createdAt,value
2018-10-18T00:00:28.455Z,29.20
2018-10-18T00:01:28.448Z,28.60
2018-10-18T00:02:28.434Z,28.40
2018-10-18T00:03:28.636Z,28.50
2018-10-18T00:04:28.413Z,31.20
2018-10-18T00:05:28.406Z,30.50
2018-10-18T00:06:28.389Z,28.50
2018-10-18T00:07:28.372Z,28.90
2018-10-18T00:08:28.393Z,29.00
2018-10-18T00:09:28.355Z,29.00
2018-10-18T00:10:28.344Z,29.80
2018-10-18T00:11:28.336Z,28.70
2018-10-18T00:12:28.315Z,33.50
2018-10-18T00:13:28.343Z,30.20
2018-10-18T00:14:28.300Z,31.40
2018-10-18T00:15:28.292Z,36.10
2018-10-18T00:16:28.275Z,34.30
2018-10-18T00:17:28.261Z,33.60
2018-10-18T00:18:28.268Z,30.90
2018-10-18T00:19:28.240Z,36.50
2018-10-18T00:20:28.226Z,35.60
2018-10-18T00:21:28.218Z,36.50
2018-10-18T00:22:28.203Z,36.10
2018-10-18T00:23:28.219Z,33.30
2018-10-18T00:24:28.178Z,34.50
2018-10-18T00:25:28.169Z,34.40
2018-10-18T00:26:28.164Z,36.70
2018-10-18T00:27:28.146Z,33.50
2018-10-18T00:28:28.162Z,34.70
2018-10-18T00:29:28.125Z,36.80
2018-10-18T00:30:28.117Z,38.50
2018-10-18T00:31:28.103Z,36.30
2018-10-18T00:32:28.090Z,35.90
2018-10-18T00:33:28.106Z,34.80
2018-10-18T00:34:28.072Z,36.80
2018-10-18T00:35:28.056Z,39.50
2018-10-18T00:36:28.046Z,36.70
2018-10-18T00:37:28.037Z,38.30
2018-10-18T00:38:28.018Z,38.60
2018-10-18T00:39:28.028Z,38.50
2018-10-18T00:40:28.003Z,38.20
2018-10-18T00:41:27.990Z,39.40
2018-10-18T00:42:27.975Z,39.30
2018-10-18T00:43:27.969Z,36.10
2018-10-18T00:44:27.979Z,37.20
2018-10-18T00:45:27.948Z,39.40
2018-10-18T00:46:27.932Z,39.90
2018-10-18T00:47:27.917Z,35.60
2018-10-18T00:48:27.910Z,37.10
2018-10-18T00:49:27.900Z,37.30
2018-10-18T00:50:27.903Z,39.10
2018-10-18T00:51:27.876Z,36.30
2018-10-18T00:52:27.860Z,37.50
2018-10-18T00:53:27.844Z,43.90
2018-10-18T00:54:27.848Z,41.30
2018-10-18T00:55:27.861Z,39.70
2018-10-18T00:56:27.812Z,40.90
2018-10-18T00:57:27.811Z,41.10
2018-10-18T00:58:27.792Z,44.30
2018-10-18T00:59:27.778Z,36.40
2018-10-18T01:00:27.774Z,41.90
2018-10-18T01:01:27.777Z,44.10
2018-10-18T01:02:27.753Z,39.00
2018-10-18T01:03:27.732Z,37.90
2018-10-18T01:04:27.719Z,41.40
2018-10-18T01:05:27.708Z,38.50
2018-10-18T01:06:27.720Z,41.20
2018-10-18T01:07:27.688Z,37.50
2018-10-18T01:08:27.682Z,41.10
2018-10-18T01:09:27.672Z,42.20
2018-10-18T01:10:27.651Z,37.90
2018-10-18T01:11:27.662Z,45.30
2018-10-18T01:12:27.862Z,39.60
2018-10-18T01:13:27.623Z,44.10
2018-10-18T01:14:27.609Z,42.70
2018-10-18T01:15:27.603Z,38.60
2018-10-18T01:16:27.611Z,41.90
2018-10-18T01:17:27.576Z,44.20
2018-10-18T01:18:27.572Z,44.00
2018-10-18T01:19:27.558Z,46.20
2018-10-18T01:20:27.538Z,45.20
2018-10-18T01:21:27.528Z,44.80
2018-10-18T01:22:27.535Z,44.90
2018-10-18T01:23:27.501Z,44.60
2018-10-18T01:24:27.494Z,47.10
2018-10-18T01:25:27.484Z,43.60
2018-10-18T01:26:27.471Z,47.10
2018-10-18T01:27:27.487Z,43.50
2018-10-18T01:28:27.446Z,45.50
2018-10-18T01:29:27.436Z,43.00
2018-10-18T01:30:27.428Z,40.60
2018-10-18T01:31:27.411Z,46.50
2018-10-18T01:32:27.439Z,43.30
2018-10-18T01:33:27.394Z,44.00
2018-10-18T01:34:27.383Z,44.60
2018-10-18T01:35:27.366Z,45.90
2018-10-18T01:36:27.357Z,47.20
2018-10-18T01:37:27.347Z,43.60
2018-10-18T01:38:27.354Z,46.00
2018-10-18T01:39:27.328Z,44.30
2018-10-18T01:40:27.307Z,47.50
2018-10-18T01:41:27.299Z,43.20
2018-10-18T01:42:27.314Z,49.20
2018-10-18T01:43:27.274Z,45.00
2018-10-18T01:44:27.272Z,45.00
2018-10-18T01:45:27.257Z,46.70
2018-10-18T01:46:27.244Z,49.20
2018-10-18T01:47:27.239Z,47.70
2018-10-18T01:48:27.241Z,41.20
2018-10-18T01:49:27.207Z,44.70
2018-10-18T01:50:27.200Z,44.00
2018-10-18T01:51:27.185Z,40.30
2018-10-18T01:52:27.170Z,42.30
2018-10-18T01:53:27.195Z,47.30
2018-10-18T01:54:27.154Z,42.90
2018-10-18T01:55:27.145Z,40.80
2018-10-18T01:56:27.127Z,45.90
2018-10-18T01:57:27.113Z,44.00
2018-10-18T01:58:27.131Z,43.80
2018-10-18T01:59:27.095Z,44.40
2018-10-18T02:00:27.086Z,43.40
2018-10-18T02:01:27.072Z,43.20
2018-10-18T02:02:27.061Z,47.50
2018-10-18T02:03:27.082Z,42.20
2018-10-18T02:04:27.040Z,43.40
2018-10-18T02:05:27.029Z,43.80
2018-10-18T02:06:27.015Z,43.20
2018-10-18T02:07:27.006Z,49.00
2018-10-18T02:08:26.989Z,39.40
2018-10-18T02:09:27.012Z,42.30
2018-10-18T02:10:26.968Z,43.70
2018-10-18T02:11:26.960Z,40.70
2018-10-18T02:12:26.947Z,43.20
2018-10-18T02:13:26.958Z,41.80
2018-10-18T02:14:26.966Z,44.40
2018-10-18T02:15:26.944Z,42.00
2018-10-18T02:16:26.916Z,41.50
2018-10-18T02:17:26.887Z,42.60
2018-10-18T02:18:26.881Z,40.30
2018-10-18T02:19:26.864Z,39.80
2018-10-18T02:20:26.855Z,41.10
2018-10-18T02:21:26.870Z,42.10
2018-10-18T02:22:26.874Z,41.60
2018-10-18T02:23:26.819Z,38.90
2018-10-18T02:24:26.812Z,38.60
2018-10-18T02:25:26.794Z,40.50
2018-10-18T02:26:26.808Z,41.00
2018-10-18T02:27:26.775Z,42.20
2018-10-18T02:28:26.760Z,41.20
2018-10-18T02:29:26.752Z,43.50
2018-10-18T02:30:26.740Z,40.00
2018-10-18T02:31:26.760Z,41.10
2018-10-18T02:32:26.712Z,40.00
2018-10-18T02:33:26.703Z,43.30
2018-10-18T02:34:26.697Z,40.10
2018-10-18T02:35:26.676Z,40.50
2018-10-18T02:36:26.674Z,41.80
2018-10-18T02:37:26.680Z,43.20
2018-10-18T02:38:26.648Z,38.50
2018-10-18T02:39:26.635Z,39.50
2018-10-18T02:40:26.627Z,40.80
2018-10-18T02:41:26.607Z,40.90
2018-10-18T02:42:26.629Z,37.10
2018-10-18T02:43:26.587Z,43.60
2018-10-18T02:44:26.578Z,41.60
2018-10-18T02:45:26.571Z,37.60
2018-10-18T02:46:26.554Z,39.10
2018-10-18T02:47:26.566Z,45.40
2018-10-18T02:48:26.536Z,39.00
2018-10-18T02:49:26.521Z,41.10
2018-10-18T02:50:26.505Z,37.20
2018-10-18T02:51:26.502Z,36.40
2018-10-18T02:52:26.481Z,39.90
2018-10-18T02:53:26.493Z,39.30
2018-10-18T02:54:26.465Z,40.80
2018-10-18T02:55:26.449Z,44.00
2018-10-18T02:56:26.435Z,40.80
2018-10-18T02:57:26.431Z,39.80
2018-10-18T02:58:26.435Z,38.90
2018-10-18T02:59:26.405Z,40.40
2018-10-18T03:00:26.391Z,41.40
2018-10-18T03:01:26.377Z,42.60
2018-10-18T03:02:26.396Z,43.80
2018-10-18T03:03:26.357Z,38.60
2018-10-18T03:04:26.348Z,39.00
2018-10-18T03:05:26.334Z,38.30
2018-10-18T03:06:26.337Z,44.30
2018-10-18T03:07:26.316Z,38.90
2018-10-18T03:08:26.333Z,43.40
2018-10-18T03:09:26.288Z,39.00
2018-10-18T03:10:26.283Z,41.60
2018-10-18T03:11:26.261Z,42.10
2018-10-18T03:12:26.259Z,39.40
2018-10-18T03:13:26.238Z,41.60
2018-10-18T03:14:26.266Z,38.30
2018-10-18T03:15:26.224Z,39.50
2018-10-18T03:16:26.204Z,40.00
2018-10-18T03:17:26.204Z,43.30
2018-10-18T03:18:26.181Z,38.30
2018-10-18T03:19:26.180Z,37.30
2018-10-18T03:20:26.181Z,40.90
2018-10-18T03:21:26.145Z,40.10
2018-10-18T03:22:26.142Z,41.40
2018-10-18T03:23:26.125Z,42.90
2018-10-18T03:24:26.115Z,39.00
2018-10-18T03:25:26.123Z,41.40
2018-10-18T03:26:26.093Z,40.20
2018-10-18T03:27:26.080Z,37.70
2018-10-18T03:28:26.065Z,40.00
2018-10-18T03:29:26.060Z,39.60
2018-10-18T03:30:26.067Z,38.20
2018-10-18T03:31:26.028Z,40.10
2018-10-18T03:32:26.027Z,39.60
2018-10-18T03:33:26.011Z,38.00
2018-10-18T03:34:25.995Z,37.80
2018-10-18T03:35:26.006Z,39.40
2018-10-18T03:36:25.975Z,39.10
2018-10-18T03:37:25.966Z,42.10
2018-10-18T03:38:25.946Z,38.20
2018-10-18T03:39:25.941Z,39.10
2018-10-18T03:40:25.947Z,36.70
2018-10-18T03:41:25.929Z,37.40
2018-10-18T03:42:25.909Z,37.50
2018-10-18T03:43:25.894Z,38.60
2018-10-18T03:44:25.885Z,43.00
2018-10-18T03:45:25.887Z,38.40
2018-10-18T03:46:25.862Z,37.20
2018-10-18T03:47:25.844Z,36.40
2018-10-18T03:48:25.835Z,128.70
2018-10-18T03:49:25.839Z,285.90
2018-10-18T03:50:25.835Z,41.70
2018-10-18T03:51:25.800Z,36.60
2018-10-18T03:52:25.786Z,40.70
2018-10-18T03:53:25.771Z,35.90
2018-10-18T03:54:25.768Z,38.30
2018-10-18T03:55:25.772Z,38.20
2018-10-18T03:56:25.740Z,33.50
2018-10-18T03:57:25.734Z,32.80
2018-10-18T03:58:25.712Z,35.30
2018-10-18T03:59:25.758Z,35.10
2018-10-18T04:00:25.711Z,36.50
2018-10-18T04:01:25.681Z,35.30
2018-10-18T04:02:25.672Z,39.90
2018-10-18T04:03:25.660Z,34.70
2018-10-18T04:04:25.646Z,35.70
2018-10-18T04:05:25.664Z,36.30
2018-10-18T04:06:25.627Z,35.70
2018-10-18T04:07:25.610Z,37.00
2018-10-18T04:08:25.601Z,38.30
2018-10-18T04:09:25.587Z,39.60
2018-10-18T04:10:25.601Z,36.00
2018-10-18T04:11:25.567Z,36.40
2018-10-18T04:12:25.608Z,33.20
2018-10-18T04:13:25.543Z,157.50
2018-10-18T04:14:25.542Z,201.20
2018-10-18T04:15:25.542Z,258.10
2018-10-18T04:16:25.511Z,49.20
2018-10-18T04:17:25.496Z,39.80
2018-10-18T04:18:25.563Z,38.20
2018-10-18T04:19:25.472Z,36.80
2018-10-18T04:20:25.485Z,36.90
2018-10-18T04:21:25.459Z,38.90
2018-10-18T04:22:25.431Z,37.10
2018-10-18T04:23:25.427Z,38.20
2018-10-18T04:24:25.494Z,40.00
2018-10-18T04:25:25.449Z,37.30
2018-10-18T04:26:25.390Z,36.20
2018-10-18T04:27:25.378Z,37.00
2018-10-18T04:28:25.368Z,37.00
2018-10-18T04:29:25.353Z,35.70
2018-10-18T04:30:25.344Z,41.20
2018-10-18T04:31:25.357Z,33.70
2018-10-18T04:32:25.320Z,36.30
2018-10-18T04:33:25.313Z,36.70
2018-10-18T04:34:25.297Z,39.10
2018-10-18T04:35:25.280Z,37.00
2018-10-18T04:36:25.299Z,37.30
2018-10-18T04:37:25.343Z,35.10
2018-10-18T04:38:25.245Z,35.40
2018-10-18T04:39:25.236Z,39.60
2018-10-18T04:40:25.230Z,39.50
2018-10-18T04:41:25.241Z,37.50
2018-10-18T04:42:25.197Z,139.90
2018-10-18T04:43:25.193Z,172.50
2018-10-18T04:44:25.177Z,96.70
2018-10-18T04:45:25.161Z,36.40
2018-10-18T04:46:25.187Z,40.10
2018-10-18T04:47:25.289Z,36.60
2018-10-18T04:48:25.194Z,37.80
2018-10-18T04:49:25.143Z,36.70
2018-10-18T04:50:25.106Z,38.70
2018-10-18T04:51:25.123Z,37.00
2018-10-18T04:52:25.083Z,39.10
2018-10-18T04:53:25.072Z,36.40
2018-10-18T04:54:25.056Z,35.70
2018-10-18T04:55:25.051Z,37.80
2018-10-18T04:56:25.059Z,36.20
2018-10-18T04:57:25.023Z,38.10
2018-10-18T04:58:25.017Z,39.10
2018-10-18T04:59:25.001Z,39.00
2018-10-18T05:00:24.992Z,35.20
2018-10-18T05:01:25.236Z,39.50
2018-10-18T05:02:24.970Z,36.90
2018-10-18T05:03:24.960Z,36.00
2018-10-18T05:04:24.945Z,34.00
2018-10-18T05:05:24.931Z,34.50
2018-10-18T05:06:24.945Z,36.30
2018-10-18T05:07:24.904Z,36.70
2018-10-18T05:08:24.902Z,40.00
2018-10-18T05:09:24.888Z,36.00
2018-10-18T05:10:24.877Z,36.80
2018-10-18T05:11:24.956Z,33.40
2018-10-18T05:12:24.879Z,37.30
2018-10-18T05:13:24.838Z,35.10
2018-10-18T05:14:24.833Z,37.30
2018-10-18T05:15:24.819Z,35.70
2018-10-18T05:16:24.833Z,41.60
2018-10-18T05:17:24.788Z,53.20
2018-10-18T05:18:24.784Z,116.40
2018-10-18T05:19:24.770Z,63.70
2018-10-18T05:20:24.756Z,38.90
2018-10-18T05:21:24.763Z,37.40
2018-10-18T05:22:24.732Z,37.10
2018-10-18T05:23:24.726Z,35.90
2018-10-18T05:24:24.712Z,34.70
2018-10-18T05:25:24.714Z,39.60
2018-10-18T05:26:24.711Z,35.70
2018-10-18T05:27:24.676Z,38.10
2018-10-18T05:28:24.664Z,36.40
2018-10-18T05:29:24.655Z,42.00
2018-10-18T05:30:24.639Z,36.90
2018-10-18T05:31:24.652Z,35.60
2018-10-18T05:32:24.618Z,34.90
2018-10-18T05:33:24.609Z,33.70
2018-10-18T05:34:24.592Z,39.60
2018-10-18T05:35:24.585Z,37.90
2018-10-18T05:36:24.601Z,38.50
2018-10-18T05:37:24.574Z,33.40
2018-10-18T05:38:24.548Z,37.50
2018-10-18T05:39:24.531Z,34.90
2018-10-18T05:40:24.529Z,36.40
2018-10-18T05:41:24.517Z,34.90
2018-10-18T05:42:24.521Z,38.40
2018-10-18T05:43:24.484Z,42.00
2018-10-18T05:44:24.481Z,34.60
2018-10-18T05:45:24.462Z,34.00
2018-10-18T05:46:24.463Z,35.40
2018-10-18T05:47:24.528Z,35.30
2018-10-18T05:48:24.426Z,34.10
2018-10-18T05:49:24.420Z,37.90
2018-10-18T05:50:24.410Z,38.40
2018-10-18T05:51:24.395Z,35.40
2018-10-18T05:52:24.408Z,36.90
2018-10-18T05:53:24.445Z,39.60
2018-10-18T05:54:24.363Z,32.20
2018-10-18T05:55:24.353Z,34.00
2018-10-18T05:56:24.371Z,32.80
2018-10-18T05:57:24.349Z,34.40
2018-10-18T05:58:24.314Z,33.40
2018-10-18T05:59:24.308Z,36.40
2018-10-18T06:00:24.381Z,35.30
2018-10-18T06:01:24.278Z,36.60
2018-10-18T06:02:24.291Z,35.70
2018-10-18T06:03:24.253Z,35.30
2018-10-18T06:04:24.249Z,38.00
2018-10-18T06:05:24.233Z,34.40
2018-10-18T06:06:24.227Z,35.30
2018-10-18T06:07:24.232Z,36.50
2018-10-18T06:08:24.197Z,33.30
2018-10-18T06:09:24.184Z,33.50
2018-10-18T06:10:24.209Z,34.10
2018-10-18T06:11:24.163Z,38.30
2018-10-18T06:12:24.176Z,36.90
2018-10-18T06:13:24.145Z,36.80
2018-10-18T06:14:24.124Z,37.10
2018-10-18T06:15:24.118Z,34.40
2018-10-18T06:16:24.104Z,33.50
2018-10-18T06:17:24.110Z,36.90
2018-10-18T06:18:24.087Z,35.50
2018-10-18T06:19:24.069Z,39.40
2018-10-18T06:20:24.066Z,36.10
2018-10-18T06:21:24.049Z,33.40
2018-10-18T06:22:24.052Z,34.30
2018-10-18T06:23:24.083Z,30.90
2018-10-18T06:24:24.011Z,39.50
2018-10-18T06:25:24.011Z,31.90
2018-10-18T06:26:23.983Z,37.80
2018-10-18T06:27:23.992Z,34.00
2018-10-18T06:28:23.961Z,33.80
2018-10-18T06:29:23.948Z,32.80
2018-10-18T06:30:23.944Z,33.80
2018-10-18T06:31:23.928Z,31.50
2018-10-18T06:32:23.940Z,31.80
2018-10-18T06:33:23.910Z,32.90
2018-10-18T06:34:23.889Z,30.60
2018-10-18T06:35:23.886Z,35.40
2018-10-18T06:36:23.869Z,34.20
2018-10-18T06:37:24.011Z,31.60
2018-10-18T06:38:23.851Z,32.40
2018-10-18T06:39:23.936Z,32.60
2018-10-18T06:40:23.820Z,32.80
2018-10-18T06:41:23.816Z,32.30
2018-10-18T06:42:23.825Z,34.30
2018-10-18T06:43:23.793Z,32.90
2018-10-18T06:44:23.772Z,34.30
2018-10-18T06:45:23.773Z,33.10
2018-10-18T06:46:23.751Z,30.80
2018-10-18T06:47:23.817Z,35.30
2018-10-18T06:48:23.735Z,32.30
2018-10-18T06:49:23.732Z,31.80
2018-10-18T06:50:23.715Z,37.50
2018-10-18T06:51:23.701Z,33.80
2018-10-18T06:52:23.701Z,34.30
2018-10-18T06:53:23.676Z,31.00
2018-10-18T06:54:23.656Z,36.80
2018-10-18T06:55:23.654Z,31.40
2018-10-18T06:56:23.633Z,31.50
2018-10-18T06:57:23.649Z,32.80
2018-10-18T06:58:23.608Z,32.00
2018-10-18T06:59:23.597Z,34.50
2018-10-18T07:00:23.654Z,29.60
2018-10-18T07:01:23.574Z,31.80
2018-10-18T07:02:23.593Z,33.50
2018-10-18T07:03:23.558Z,34.30
2018-10-18T07:04:23.539Z,33.60
2018-10-18T07:05:23.532Z,31.70
2018-10-18T07:06:23.521Z,34.20
2018-10-18T07:07:23.533Z,31.90
2018-10-18T07:08:23.503Z,32.60
2018-10-18T07:09:23.489Z,32.60
2018-10-18T07:10:23.470Z,34.90
2018-10-18T07:11:23.457Z,31.30
2018-10-18T07:12:23.453Z,34.00
2018-10-18T07:13:23.462Z,33.00
2018-10-18T07:14:23.429Z,34.60
2018-10-18T07:15:23.421Z,30.30
2018-10-18T07:16:23.398Z,31.00
2018-10-18T07:17:23.395Z,35.80
2018-10-18T07:18:23.374Z,34.90
2018-10-18T07:19:23.391Z,32.20
2018-10-18T07:20:23.355Z,29.10
2018-10-18T07:21:23.345Z,31.80
2018-10-18T07:22:23.337Z,33.90
2018-10-18T07:23:23.321Z,34.30
2018-10-18T07:24:23.333Z,27.70
2018-10-18T07:25:23.442Z,30.10
2018-10-18T07:26:23.282Z,28.80
2018-10-18T07:27:23.273Z,25.40
2018-10-18T07:28:23.259Z,31.00
2018-10-18T07:29:23.278Z,28.70
2018-10-18T07:30:23.241Z,27.20
2018-10-18T07:31:23.232Z,30.90
2018-10-18T07:32:23.216Z,27.20
2018-10-18T07:33:23.208Z,27.00
2018-10-18T07:34:23.215Z,25.30
2018-10-18T07:35:23.182Z,26.10
2018-10-18T07:36:23.172Z,23.50
2018-10-18T07:37:23.164Z,22.60
2018-10-18T07:38:23.143Z,29.00
2018-10-18T07:39:23.163Z,23.70
2018-10-18T07:40:23.124Z,22.20
2018-10-18T07:41:23.147Z,23.70
2018-10-18T07:42:23.106Z,20.10
2018-10-18T07:43:23.088Z,26.90
2018-10-18T07:44:23.101Z,23.70
2018-10-18T07:45:23.080Z,23.90
2018-10-18T07:46:23.064Z,24.70
2018-10-18T07:47:23.050Z,22.70
2018-10-18T07:48:23.030Z,25.10
2018-10-18T07:49:23.049Z,22.20
2018-10-18T07:50:23.012Z,22.00
2018-10-18T07:51:22.995Z,20.00
2018-10-18T07:52:22.993Z,21.80
2018-10-18T07:53:23.002Z,20.40
2018-10-18T07:54:22.992Z,21.20
2018-10-18T07:55:22.958Z,24.60
2018-10-18T07:56:22.938Z,21.40
2018-10-18T07:57:22.932Z,21.10
2018-10-18T07:58:22.920Z,21.60
2018-10-18T07:59:22.935Z,19.20
2018-10-18T08:00:23.049Z,20.90
2018-10-18T08:01:22.883Z,22.80
2018-10-18T08:02:22.874Z,21.40
2018-10-18T08:03:22.864Z,21.50
2018-10-18T08:04:22.850Z,20.60
2018-10-18T08:05:22.862Z,19.90
2018-10-18T08:06:22.833Z,19.80
2018-10-18T08:07:22.821Z,20.80
2018-10-18T08:08:22.799Z,22.70
2018-10-18T08:09:22.800Z,20.40
2018-10-18T08:10:22.800Z,20.60
2018-10-18T08:11:22.770Z,21.00
2018-10-18T08:12:22.764Z,20.50
2018-10-18T08:13:22.749Z,21.00
2018-10-18T08:14:22.735Z,21.70
2018-10-18T08:15:22.751Z,18.10
2018-10-18T08:16:22.719Z,22.90
2018-10-18T08:17:22.769Z,18.50
2018-10-18T08:18:22.690Z,18.60
2018-10-18T08:19:22.678Z,17.90
2018-10-18T08:20:22.697Z,18.90
2018-10-18T08:21:22.658Z,19.70
2018-10-18T08:22:22.655Z,18.30
2018-10-18T08:23:22.634Z,17.20
2018-10-18T08:24:22.627Z,20.10
2018-10-18T08:25:22.637Z,19.80
2018-10-18T08:26:22.598Z,19.60
2018-10-18T08:27:22.593Z,18.70
2018-10-18T08:28:22.573Z,21.50
2018-10-18T08:29:22.565Z,19.90
2018-10-18T08:30:22.580Z,21.70
2018-10-18T08:31:22.563Z,20.30
2018-10-18T08:32:22.528Z,19.60
2018-10-18T08:33:22.525Z,20.30
2018-10-18T08:34:22.512Z,19.20
2018-10-18T08:35:22.521Z,18.50
2018-10-18T08:36:22.490Z,19.60
2018-10-18T08:37:22.483Z,19.00
2018-10-18T08:38:22.459Z,18.40
2018-10-18T08:39:22.457Z,19.50
2018-10-18T08:40:22.462Z,17.20
2018-10-18T08:41:22.429Z,19.80
2018-10-18T08:42:22.421Z,19.70
2018-10-18T08:43:22.403Z,16.30
2018-10-18T08:44:22.433Z,18.80
2018-10-18T08:45:22.412Z,19.90
2018-10-18T08:46:22.376Z,17.50
2018-10-18T08:47:22.363Z,18.00
2018-10-18T08:48:22.354Z,16.60
2018-10-18T08:49:22.335Z,17.70
2018-10-18T08:50:22.347Z,18.90
2018-10-18T08:51:22.314Z,16.60
2018-10-18T08:52:22.307Z,15.60
2018-10-18T08:53:22.291Z,16.60
2018-10-18T08:54:22.283Z,17.80
2018-10-18T08:55:22.291Z,17.70
2018-10-18T08:56:22.264Z,18.00
2018-10-18T08:57:22.242Z,15.80
2018-10-18T08:58:22.241Z,16.60
2018-10-18T08:59:22.275Z,15.60
2018-10-18T09:00:22.229Z,19.10
2018-10-18T09:01:22.204Z,15.60
2018-10-18T09:02:22.183Z,16.70
2018-10-18T09:03:22.180Z,14.30
2018-10-18T09:04:22.167Z,16.70
2018-10-18T09:05:22.181Z,17.20
2018-10-18T09:06:22.137Z,16.60
2018-10-18T09:07:22.126Z,16.70
2018-10-18T09:08:22.121Z,16.30
2018-10-18T09:09:22.103Z,14.50
2018-10-18T09:10:22.121Z,15.60
2018-10-18T09:11:22.087Z,15.70
2018-10-18T09:12:22.068Z,17.40
2018-10-18T09:13:22.064Z,14.10
2018-10-18T09:14:22.044Z,14.90
2018-10-18T09:15:22.031Z,14.60
2018-10-18T09:16:22.055Z,15.70
2018-10-18T09:17:22.008Z,15.50
2018-10-18T09:18:22.005Z,15.00
2018-10-18T09:19:21.994Z,15.30
2018-10-18T09:20:21.983Z,16.00
2018-10-18T09:21:21.988Z,15.00
2018-10-18T09:22:21.954Z,13.10
2018-10-18T09:23:21.941Z,14.40
2018-10-18T09:24:21.933Z,15.00
2018-10-18T09:25:21.919Z,14.90
2018-10-18T09:26:21.928Z,13.50
2018-10-18T09:27:21.925Z,14.50
2018-10-18T09:28:21.899Z,13.10
2018-10-18T09:29:21.876Z,13.50
2018-10-18T09:30:21.921Z,15.50
2018-10-18T09:31:21.878Z,12.90
2018-10-18T09:32:21.840Z,13.00
2018-10-18T09:33:21.828Z,12.90
2018-10-18T09:34:21.822Z,12.80
2018-10-18T09:35:21.811Z,14.70
2018-10-18T09:36:21.821Z,13.80
2018-10-18T09:37:21.783Z,12.50
2018-10-18T09:38:21.894Z,12.10
2018-10-18T09:39:21.758Z,11.10
2018-10-18T09:40:21.755Z,11.80
2018-10-18T09:41:21.759Z,11.40
2018-10-18T09:42:21.736Z,11.80
2018-10-18T09:43:21.722Z,13.00
2018-10-18T09:44:21.847Z,10.20
2018-10-18T09:45:21.693Z,11.10
2018-10-18T09:46:21.708Z,11.80
2018-10-18T09:47:21.676Z,12.00
2018-10-18T09:48:21.666Z,11.90
2018-10-18T09:49:21.651Z,14.40
2018-10-18T09:50:21.637Z,12.00
2018-10-18T09:51:21.644Z,11.90
2018-10-18T09:52:21.614Z,11.70
2018-10-18T09:53:21.602Z,11.80
2018-10-18T09:54:21.598Z,10.90
2018-10-18T09:55:21.671Z,12.20
2018-10-18T09:56:21.591Z,11.00
2018-10-18T09:57:21.565Z,12.50
2018-10-18T09:58:21.550Z,10.40
2018-10-18T09:59:21.549Z,11.90
2018-10-18T10:00:21.523Z,13.40
2018-10-18T10:01:21.542Z,11.40
2018-10-18T10:02:21.504Z,11.20
2018-10-18T10:03:21.497Z,10.20
2018-10-18T10:04:21.602Z,11.90
2018-10-18T10:05:21.470Z,10.10
2018-10-18T10:06:21.482Z,10.90
2018-10-18T10:07:21.454Z,11.50
2018-10-18T10:08:21.438Z,11.10
2018-10-18T10:09:21.426Z,12.10
2018-10-18T10:10:21.423Z,10.20
2018-10-18T10:11:21.428Z,9.00
2018-10-18T10:12:21.398Z,9.90
2018-10-18T10:13:21.586Z,9.70
2018-10-18T10:14:21.370Z,9.40
2018-10-18T10:15:21.360Z,10.50
2018-10-18T10:16:21.377Z,10.80
2018-10-18T10:17:21.346Z,12.00
2018-10-18T10:18:21.360Z,11.40
2018-10-18T10:19:21.322Z,11.50
2018-10-18T10:20:21.305Z,11.10
2018-10-18T10:21:21.293Z,12.70
2018-10-18T10:22:21.302Z,14.30
2018-10-18T10:23:21.277Z,12.40
2018-10-18T10:24:21.307Z,13.70
2018-10-18T10:25:21.255Z,12.30
2018-10-18T10:26:21.236Z,13.70
2018-10-18T10:27:21.253Z,13.40
2018-10-18T10:28:21.216Z,11.90
2018-10-18T10:29:21.202Z,11.40
2018-10-18T10:30:21.295Z,12.90
2018-10-18T10:31:21.187Z,12.30
2018-10-18T10:32:21.190Z,11.30
2018-10-18T10:33:21.181Z,11.30
2018-10-18T10:34:21.142Z,10.60
2018-10-18T10:35:21.164Z,10.20
2018-10-18T10:36:21.133Z,15.50
2018-10-18T10:37:21.143Z,17.30
2018-10-18T10:38:21.108Z,14.90
2018-10-18T10:39:21.088Z,14.00
2018-10-18T10:40:21.086Z,15.30
2018-10-18T10:41:21.064Z,13.20
2018-10-18T10:42:21.089Z,15.40
2018-10-18T10:43:21.052Z,13.30
2018-10-18T10:44:21.106Z,13.30
2018-10-18T10:45:21.123Z,13.20
2018-10-18T10:46:21.160Z,14.60
2018-10-18T10:47:21.019Z,13.00
2018-10-18T10:48:21.009Z,13.30
2018-10-18T10:49:21.042Z,12.00
2018-10-18T10:50:21.078Z,13.30
2018-10-18T10:51:20.960Z,13.10
2018-10-18T10:52:20.967Z,14.60
2018-10-18T10:53:20.939Z,14.50
2018-10-18T10:54:20.916Z,12.80
2018-10-18T10:55:20.915Z,12.00
2018-10-18T10:56:20.894Z,10.10
2018-10-18T10:57:20.907Z,11.70
2018-10-18T10:58:20.880Z,12.00
2018-10-18T10:59:20.859Z,11.70
2018-10-18T11:00:20.856Z,9.90
2018-10-18T11:01:20.842Z,10.80
2018-10-18T11:02:20.849Z,9.50
2018-10-18T11:03:20.918Z,11.80
2018-10-18T11:04:20.808Z,8.90
2018-10-18T11:05:20.796Z,11.30
2018-10-18T11:06:20.946Z,10.50
2018-10-18T11:07:20.790Z,12.60
2018-10-18T11:08:20.760Z,12.10
2018-10-18T11:09:20.939Z,10.70
2018-10-18T11:10:20.738Z,9.00
2018-10-18T11:11:20.730Z,9.50
2018-10-18T11:12:20.754Z,8.80
2018-10-18T11:13:20.703Z,10.80
2018-10-18T11:14:20.701Z,9.30
2018-10-18T11:15:20.729Z,9.00
2018-10-18T11:16:20.674Z,8.80
2018-10-18T11:17:20.779Z,7.30
2018-10-18T11:18:20.645Z,8.10
2018-10-18T11:19:20.638Z,8.00
2018-10-18T11:20:20.625Z,8.50
2018-10-18T11:21:20.660Z,8.60
2018-10-18T11:22:20.629Z,7.40
2018-10-18T11:23:20.593Z,8.90
2018-10-18T11:24:20.621Z,8.70
2018-10-18T11:25:20.568Z,6.90
2018-10-18T11:26:20.647Z,8.20
2018-10-18T11:27:20.693Z,8.10
2018-10-18T11:28:20.559Z,7.00
2018-10-18T11:29:20.529Z,7.80
2018-10-18T11:30:20.508Z,8.30
2018-10-18T11:31:20.502Z,7.80
2018-10-18T11:32:20.489Z,7.60
2018-10-18T11:33:20.496Z,8.10
2018-10-18T11:34:20.505Z,7.80
2018-10-18T11:35:20.455Z,6.80
2018-10-18T11:36:20.453Z,7.20
2018-10-18T11:37:20.432Z,6.80
2018-10-18T11:38:20.446Z,7.50
2018-10-18T11:39:20.412Z,7.90
2018-10-18T11:40:20.399Z,5.70
2018-10-18T11:41:20.383Z,6.60
2018-10-18T11:42:20.529Z,7.90
2018-10-18T11:43:20.382Z,5.30
2018-10-18T11:44:20.467Z,7.10
2018-10-18T11:45:20.343Z,5.10
2018-10-18T11:46:20.336Z,5.40
2018-10-18T11:47:20.323Z,6.50
2018-10-18T11:48:20.328Z,6.70
2018-10-18T11:49:20.301Z,4.90
2018-10-18T11:50:20.567Z,5.20
2018-10-18T11:51:20.304Z,6.20
2018-10-18T11:52:20.262Z,6.60
2018-10-18T11:53:20.270Z,4.90
2018-10-18T11:54:20.246Z,6.00
2018-10-18T11:55:20.225Z,5.20
2018-10-18T11:56:20.218Z,5.10
2018-10-18T11:57:20.201Z,7.50
2018-10-18T11:58:20.221Z,5.90
2018-10-18T11:59:20.184Z,5.40
2018-10-18T12:00:20.162Z,4.80
2018-10-18T12:01:20.228Z,5.30
2018-10-18T12:02:20.268Z,4.20
2018-10-18T12:03:20.128Z,5.30
2018-10-18T12:04:20.149Z,5.70
2018-10-18T12:05:20.117Z,7.00
2018-10-18T12:06:20.099Z,4.80
2018-10-18T12:07:20.088Z,5.50
2018-10-18T12:08:20.080Z,5.40
2018-10-18T12:09:20.088Z,5.80
2018-10-18T12:10:20.056Z,6.50
2018-10-18T12:11:20.047Z,5.00
2018-10-18T12:12:20.031Z,8.00
2018-10-18T12:13:20.024Z,4.50
2018-10-18T12:14:20.038Z,3.80
2018-10-18T12:15:20.000Z,4.00
2018-10-18T12:16:19.992Z,4.20
2018-10-18T12:17:19.985Z,6.80
2018-10-18T12:18:19.963Z,4.40
2018-10-18T12:19:19.981Z,5.50
2018-10-18T12:20:20.017Z,3.60
2018-10-18T12:21:19.934Z,3.10
2018-10-18T12:22:19.923Z,3.20
2018-10-18T12:23:19.973Z,3.50
2018-10-18T12:24:19.918Z,2.70
2018-10-18T12:25:19.881Z,3.30
2018-10-18T12:26:19.879Z,3.30
2018-10-18T12:27:19.867Z,6.40
2018-10-18T12:28:19.848Z,4.80
2018-10-18T12:29:19.973Z,4.00
2018-10-18T12:30:19.828Z,3.40
2018-10-18T12:31:19.822Z,3.20
2018-10-18T12:32:19.800Z,3.30
2018-10-18T12:33:19.791Z,3.20
2018-10-18T12:34:19.806Z,3.00
2018-10-18T12:35:19.769Z,3.90
2018-10-18T12:36:19.766Z,3.10
2018-10-18T12:37:19.747Z,3.50
2018-10-18T12:38:19.735Z,3.00
2018-10-18T12:39:19.750Z,4.40
2018-10-18T12:40:19.801Z,3.90
2018-10-18T12:41:20.070Z,3.30
2018-10-18T12:42:19.692Z,4.10
2018-10-18T12:43:19.673Z,4.50
2018-10-18T12:44:19.689Z,3.70
2018-10-18T12:45:19.659Z,2.90
2018-10-18T12:46:19.644Z,5.20
2018-10-18T12:47:19.629Z,3.80
2018-10-18T12:48:19.682Z,3.30
2018-10-18T12:49:19.630Z,3.50
2018-10-18T12:50:19.605Z,4.90
2018-10-18T12:51:19.593Z,4.20
2018-10-18T12:52:19.574Z,4.50
2018-10-18T12:53:19.574Z,5.30
2018-10-18T12:54:19.574Z,4.90
2018-10-18T12:55:19.542Z,5.60
2018-10-18T12:56:19.596Z,3.80